HRE weather

Robert Gabriel Mugabe International Airport
Harare, Harare Metropolitan Province, Zimbabwe

Public forecast

Using degrees Celsius for public forecast. Weather courtesy of forecast.io.

Current aviation weather report (METAR) for Robert Gabriel Mugabe International Airport

Retrieved 2019/10/18 07:00 UTC (17 minutes ago):

FVRG 180700Z 06012KT 040V120 CAVOK 22/03 Q1024 NOSIG

Closest aviation forecast (TAF) to Robert Gabriel Mugabe International Airport

Forecast is more than 12 hours old.

Retrieved 2019/10/16 06:00 UTC (2 days ago):

TAF FVRG 160400Z 1606/1712 10008KT CAVOK